createdAt,value
2023-04-18T00:01:14.744Z,27.10
2023-04-18T00:04:00.032Z,29.58
2023-04-18T00:06:47.127Z,32.42
2023-04-18T00:09:32.721Z,29.90
2023-04-18T00:12:18.759Z,27.83
2023-04-18T00:15:05.864Z,27.35
2023-04-18T00:17:51.178Z,27.15
2023-04-18T00:20:38.841Z,27.60
2023-04-18T00:23:27.928Z,30.35
2023-04-18T00:26:13.318Z,27.08
2023-04-18T00:29:00.012Z,28.42
2023-04-18T00:31:45.414Z,26.45
2023-04-18T00:34:31.038Z,27.52
2023-04-18T00:37:16.431Z,24.80
2023-04-18T00:40:01.877Z,26.00
2023-04-18T00:42:47.364Z,26.92
2023-04-18T00:45:32.498Z,28.80
2023-04-18T00:48:18.251Z,27.73
2023-04-18T00:51:03.751Z,27.00
2023-04-18T00:53:49.312Z,31.88
2023-04-18T00:56:36.042Z,27.60
2023-04-18T00:59:22.189Z,25.23
2023-04-18T01:02:07.900Z,24.55
2023-04-18T01:04:52.965Z,27.98
2023-04-18T01:07:41.504Z,25.85
2023-04-18T01:10:28.461Z,29.57
2023-04-18T01:13:16.491Z,22.38
2023-04-18T01:16:01.665Z,25.02
2023-04-18T01:18:50.170Z,25.00
2023-04-18T01:21:37.164Z,25.65
2023-04-18T01:24:25.758Z,28.17
2023-04-18T01:27:13.403Z,25.33
2023-04-18T01:29:58.669Z,29.27
2023-04-18T01:32:46.726Z,25.17
2023-04-18T01:35:35.378Z,25.35
2023-04-18T01:38:20.727Z,28.58
2023-04-18T01:41:05.873Z,25.20
2023-04-18T01:43:50.986Z,25.83
2023-04-18T01:46:36.648Z,25.00
2023-04-18T01:49:21.676Z,26.27
2023-04-18T01:52:08.371Z,28.67
2023-04-18T01:54:53.513Z,25.77
2023-04-18T01:57:39.026Z,27.02
2023-04-18T02:00:24.671Z,23.40
2023-04-18T02:03:09.847Z,28.50
2023-04-18T02:05:56.018Z,23.42
2023-04-18T02:08:41.339Z,27.15
2023-04-18T02:11:26.809Z,25.73
2023-04-18T02:14:12.391Z,25.45
2023-04-18T02:16:58.340Z,25.30
2023-04-18T02:19:43.372Z,24.90
2023-04-18T02:22:28.824Z,23.75
2023-04-18T02:25:14.096Z,25.13
2023-04-18T02:27:59.854Z,28.25
2023-04-18T02:30:45.386Z,24.80
2023-04-18T02:33:30.777Z,25.00
2023-04-18T02:36:16.075Z,27.50
2023-04-18T02:39:01.174Z,29.55
2023-04-18T02:41:46.665Z,26.92
2023-04-18T02:44:33.263Z,23.65
2023-04-18T02:47:18.759Z,30.77
2023-04-18T02:50:05.628Z,28.25
2023-04-18T02:52:51.746Z,27.95
2023-04-18T02:55:38.914Z,24.38
2023-04-18T02:58:24.180Z,26.02
2023-04-18T03:01:30.204Z,24.00
2023-04-18T03:04:24.312Z,21.40
2023-04-18T03:07:16.605Z,23.17
2023-04-18T03:10:01.843Z,28.05
2023-04-18T03:12:52.060Z,25.70
2023-04-18T03:15:38.155Z,26.17
2023-04-18T03:18:25.647Z,29.30
2023-04-18T03:21:14.821Z,28.42
2023-04-18T03:24:00.606Z,28.30
2023-04-18T03:26:48.282Z,28.15
2023-04-18T03:29:35.518Z,23.85
2023-04-18T03:32:20.918Z,22.63
2023-04-18T03:35:06.788Z,23.23
2023-04-18T03:37:52.332Z,22.63
2023-04-18T03:40:46.869Z,27.40
2023-04-18T03:43:42.329Z,20.60
2023-04-18T03:46:27.840Z,21.45
2023-04-18T03:49:15.238Z,22.02
2023-04-18T03:52:01.356Z,22.90
2023-04-18T03:54:46.844Z,24.65
2023-04-18T03:57:34.385Z,24.05
2023-04-18T04:00:22.179Z,21.33
2023-04-18T04:03:18.128Z,26.50
2023-04-18T04:06:04.945Z,25.40
2023-04-18T04:08:50.396Z,26.10
2023-04-18T04:11:39.845Z,21.45
2023-04-18T04:14:27.910Z,21.00
2023-04-18T04:17:13.326Z,25.85
2023-04-18T04:19:58.780Z,24.63
2023-04-18T04:22:44.166Z,24.27
2023-04-18T04:25:29.725Z,27.30
2023-04-18T04:28:19.479Z,23.30
2023-04-18T04:31:11.259Z,24.67
2023-04-18T04:33:57.454Z,23.25
2023-04-18T04:36:44.201Z,28.40
2023-04-18T04:39:31.450Z,26.98
2023-04-18T04:42:36.632Z,26.05
2023-04-18T04:45:29.501Z,28.85
2023-04-18T04:48:14.395Z,28.35
2023-04-18T04:51:01.188Z,25.27
2023-04-18T04:53:46.537Z,21.33
2023-04-18T04:56:32.161Z,27.38
2023-04-18T04:59:17.808Z,28.92
2023-04-18T05:02:04.178Z,25.67
2023-04-18T05:04:49.735Z,25.58
2023-04-18T05:07:35.093Z,22.33
2023-04-18T05:10:21.591Z,27.50
2023-04-18T05:13:07.076Z,28.17
2023-04-18T05:15:52.557Z,26.77
2023-04-18T05:18:39.243Z,29.85
2023-04-18T05:21:25.967Z,24.15
2023-04-18T05:24:11.295Z,26.10
2023-04-18T05:26:57.008Z,22.95
2023-04-18T05:29:42.399Z,29.05
2023-04-18T05:32:27.758Z,26.42
2023-04-18T05:35:13.204Z,22.30
2023-04-18T05:37:59.024Z,23.63
2023-04-18T05:40:44.710Z,26.65
2023-04-18T05:43:29.844Z,24.52
2023-04-18T05:46:15.058Z,27.25
2023-04-18T05:49:00.688Z,24.83
2023-04-18T05:51:46.685Z,27.65
2023-04-18T05:54:32.153Z,27.88
2023-04-18T05:57:17.126Z,27.90
2023-04-18T06:00:03.210Z,25.95
2023-04-18T06:02:58.131Z,22.75
2023-04-18T06:05:44.038Z,24.92
2023-04-18T06:08:29.084Z,22.95
2023-04-18T06:11:15.302Z,26.33
2023-04-18T06:14:00.734Z,27.33
2023-04-18T06:16:46.278Z,25.92
2023-04-18T06:19:31.597Z,23.73
2023-04-18T06:22:16.617Z,28.98
2023-04-18T06:25:02.238Z,31.15
2023-04-18T06:27:47.282Z,22.08
2023-04-18T06:30:32.828Z,26.40
2023-04-18T06:33:18.086Z,21.83
2023-04-18T06:36:07.304Z,27.80
2023-04-18T06:38:52.532Z,24.05
2023-04-18T06:41:37.927Z,22.67
2023-04-18T06:44:23.366Z,22.98
2023-04-18T06:47:10.411Z,28.48
2023-04-18T06:49:55.777Z,21.63
2023-04-18T06:52:44.349Z,23.13
2023-04-18T06:55:29.511Z,26.55
2023-04-18T06:58:16.131Z,19.08
2023-04-18T07:01:01.229Z,23.88
2023-04-18T07:03:46.839Z,25.48
2023-04-18T07:06:32.702Z,22.40
2023-04-18T07:09:18.004Z,23.25
2023-04-18T07:12:03.359Z,23.27
2023-04-18T07:14:48.536Z,21.60
2023-04-18T07:17:34.001Z,20.77
2023-04-18T07:20:20.372Z,26.42
2023-04-18T07:23:06.123Z,28.98
2023-04-18T07:25:51.750Z,21.17
2023-04-18T07:28:37.164Z,23.92
2023-04-18T07:31:22.750Z,25.20
2023-04-18T07:34:09.049Z,19.88
2023-04-18T07:36:54.341Z,27.13
2023-04-18T07:39:39.744Z,26.70
2023-04-18T07:42:25.278Z,21.80
2023-04-18T07:45:10.895Z,23.00
2023-04-18T07:47:56.734Z,20.17
2023-04-18T07:50:42.300Z,19.95
2023-04-18T07:53:27.805Z,22.35
2023-04-18T07:56:14.513Z,18.92
2023-04-18T07:58:59.946Z,19.33
2023-04-18T08:01:45.754Z,21.25
2023-04-18T08:04:31.487Z,19.95
2023-04-18T08:07:16.960Z,20.98
2023-04-18T08:10:02.541Z,23.52
2023-04-18T08:12:48.029Z,22.48
2023-04-18T08:15:33.563Z,24.23
2023-04-18T08:18:19.840Z,21.50
2023-04-18T08:21:05.278Z,22.88
2023-04-18T08:23:50.445Z,22.17
2023-04-18T08:26:35.943Z,20.20
2023-04-18T08:29:21.499Z,24.60
2023-04-18T08:32:08.134Z,23.35
2023-04-18T08:34:53.549Z,21.45
2023-04-18T08:37:39.201Z,18.95
2023-04-18T08:40:24.709Z,21.98
2023-04-18T08:43:13.977Z,25.45
2023-04-18T08:46:00.510Z,20.92
2023-04-18T08:48:49.316Z,22.20
2023-04-18T08:51:36.360Z,20.83
2023-04-18T08:54:22.475Z,23.30
2023-04-18T08:57:09.481Z,23.20
2023-04-18T08:59:55.196Z,23.10
2023-04-18T09:02:45.170Z,23.23
2023-04-18T09:05:30.651Z,16.48
2023-04-18T09:08:25.879Z,24.48
2023-04-18T09:11:28.811Z,20.40
2023-04-18T09:14:24.461Z,22.75
2023-04-18T09:17:31.675Z,21.40
2023-04-18T09:20:35.883Z,22.20
2023-04-18T09:23:26.096Z,22.52
2023-04-18T09:26:12.316Z,20.33
2023-04-18T09:28:58.223Z,19.60
2023-04-18T09:32:06.092Z,19.40
2023-04-18T09:34:58.151Z,20.75
2023-04-18T09:37:51.108Z,20.73
2023-04-18T09:40:36.640Z,19.85
2023-04-18T09:43:24.024Z,28.23
2023-04-18T09:46:09.778Z,20.45
2023-04-18T09:48:55.493Z,19.10
2023-04-18T09:51:42.082Z,20.95
2023-04-18T09:54:32.171Z,20.20
2023-04-18T09:57:19.840Z,23.00
2023-04-18T10:00:10.586Z,22.13
2023-04-18T10:02:58.687Z,17.23
2023-04-18T10:05:45.650Z,17.08
2023-04-18T10:08:32.295Z,21.00
2023-04-18T10:11:19.211Z,18.23
2023-04-18T10:14:10.012Z,19.98
2023-04-18T10:16:56.023Z,18.23
2023-04-18T10:19:44.210Z,22.98
2023-04-18T10:22:29.547Z,22.35
2023-04-18T10:25:40.932Z,22.17
2023-04-18T10:28:28.160Z,22.65
2023-04-18T10:31:13.292Z,20.90
2023-04-18T10:34:05.310Z,20.00
2023-04-18T10:37:04.905Z,22.73
2023-04-18T10:39:58.279Z,22.38
2023-04-18T10:42:55.316Z,22.33
2023-04-18T10:45:40.908Z,19.95
2023-04-18T10:48:30.198Z,20.50
2023-04-18T10:51:20.819Z,17.00
2023-04-18T10:54:10.341Z,18.95
2023-04-18T10:56:57.781Z,23.08
2023-04-18T10:59:48.112Z,18.30
2023-04-18T11:02:33.536Z,22.60
2023-04-18T11:05:21.194Z,16.95
2023-04-18T11:08:22.600Z,19.00
2023-04-18T11:11:11.093Z,20.95
2023-04-18T11:13:57.749Z,23.55
2023-04-18T11:16:42.941Z,21.67
2023-04-18T11:19:27.927Z,19.48
2023-04-18T11:22:13.518Z,17.17
2023-04-18T11:25:07.899Z,19.90
2023-04-18T11:27:54.947Z,19.33
2023-04-18T11:30:41.761Z,20.38
2023-04-18T11:33:28.719Z,18.33
2023-04-18T11:36:14.488Z,19.70
2023-04-18T11:38:59.927Z,20.75
2023-04-18T11:41:50.344Z,19.55
2023-04-18T11:44:39.454Z,16.45
2023-04-18T11:47:30.679Z,17.33
2023-04-18T11:50:16.297Z,19.08
2023-04-18T11:53:01.561Z,16.83
2023-04-18T11:55:56.190Z,16.77
2023-04-18T11:58:42.783Z,17.50
2023-04-18T12:01:28.331Z,20.13
2023-04-18T12:04:14.530Z,17.95
2023-04-18T12:06:59.961Z,15.73
2023-04-18T12:09:45.707Z,20.20
2023-04-18T12:12:30.993Z,18.55
2023-04-18T12:15:17.388Z,15.60
2023-04-18T12:18:06.007Z,17.67
2023-04-18T12:20:53.970Z,18.33
2023-04-18T12:23:41.826Z,19.10
2023-04-18T12:26:27.409Z,23.35
2023-04-18T12:29:12.858Z,21.50
2023-04-18T12:31:58.289Z,18.15
2023-04-18T12:34:43.901Z,22.13
2023-04-18T12:37:29.374Z,23.30
2023-04-18T12:40:15.990Z,23.80
2023-04-18T12:43:03.434Z,20.02
2023-04-18T12:45:49.510Z,18.42
2023-04-18T12:48:34.878Z,20.83
2023-04-18T12:51:21.907Z,27.67
2023-04-18T12:54:07.072Z,22.42
2023-04-18T12:56:52.556Z,18.58
2023-04-18T12:59:37.956Z,20.40
2023-04-18T13:02:23.927Z,19.25
2023-04-18T13:05:11.337Z,20.23
2023-04-18T13:08:08.568Z,20.48
2023-04-18T13:11:01.372Z,22.98
2023-04-18T13:13:49.624Z,20.83
2023-04-18T13:16:35.127Z,18.40
2023-04-18T13:19:20.353Z,24.33
2023-04-18T13:22:05.629Z,21.38
2023-04-18T13:24:50.830Z,22.48
2023-04-18T13:27:39.525Z,25.63
2023-04-18T13:30:26.842Z,18.75
2023-04-18T13:33:12.055Z,22.80
2023-04-18T13:35:57.333Z,21.08
2023-04-18T13:38:42.476Z,24.98
2023-04-18T13:41:28.867Z,16.77
2023-04-18T13:44:14.352Z,20.75
2023-04-18T13:47:00.881Z,20.23
2023-04-18T13:49:46.292Z,21.85
2023-04-18T13:52:31.681Z,22.52
2023-04-18T13:55:18.700Z,19.30
2023-04-18T13:58:04.293Z,18.42
2023-04-18T14:00:49.598Z,19.73
2023-04-18T14:03:37.552Z,20.08
2023-04-18T14:06:23.903Z,18.83
2023-04-18T14:09:09.277Z,17.50
2023-04-18T14:11:54.530Z,17.20
2023-04-18T14:14:39.723Z,15.30
2023-04-18T14:17:25.019Z,16.40
2023-04-18T14:20:10.993Z,17.33
2023-04-18T14:22:56.236Z,18.90
2023-04-18T14:25:41.750Z,14.35
2023-04-18T14:28:27.389Z,17.08
2023-04-18T14:31:13.913Z,14.18
2023-04-18T14:33:59.379Z,15.80
2023-04-18T14:36:44.535Z,16.33
2023-04-18T14:39:31.011Z,19.98
2023-04-18T14:42:17.462Z,17.65
2023-04-18T14:45:04.251Z,13.13
2023-04-18T14:47:49.736Z,16.05
2023-04-18T14:50:35.941Z,16.42
2023-04-18T14:53:21.207Z,17.65
2023-04-18T14:56:07.218Z,16.92
2023-04-18T14:58:52.570Z,18.45
2023-04-18T15:01:38.039Z,17.02
2023-04-18T15:04:23.566Z,17.45
2023-04-18T15:07:08.697Z,15.65
2023-04-18T15:09:54.317Z,17.80
2023-04-18T15:12:39.598Z,17.58
2023-04-18T15:15:25.136Z,16.02
2023-04-18T15:18:11.122Z,14.35
2023-04-18T15:20:58.740Z,13.98
2023-04-18T15:23:44.251Z,14.88
2023-04-18T15:26:31.680Z,14.18
2023-04-18T15:29:18.581Z,14.67
2023-04-18T15:32:05.037Z,13.45
2023-04-18T15:34:50.682Z,13.45
2023-04-18T15:37:36.890Z,14.43
2023-04-18T15:40:22.689Z,12.82
2023-04-18T15:43:07.741Z,11.75
2023-04-18T15:45:53.448Z,11.05
2023-04-18T15:48:38.861Z,15.23
2023-04-18T15:51:29.534Z,10.95
2023-04-18T15:54:15.328Z,10.93
2023-04-18T15:57:00.772Z,9.02
2023-04-18T15:59:46.096Z,9.45
2023-04-18T16:02:31.526Z,15.15
2023-04-18T16:05:17.364Z,11.07
2023-04-18T16:08:02.890Z,7.55
2023-04-18T16:10:48.360Z,13.40
2023-04-18T16:13:38.281Z,6.82
2023-04-18T16:16:24.051Z,8.27
2023-04-18T16:19:09.180Z,8.00
2023-04-18T16:21:54.360Z,11.23
2023-04-18T16:24:41.517Z,10.07
2023-04-18T16:27:27.100Z,8.55
2023-04-18T16:30:12.720Z,7.22
2023-04-18T16:32:58.424Z,7.30
2023-04-18T16:35:44.040Z,7.35
2023-04-18T16:38:29.607Z,7.22
2023-04-18T16:41:14.725Z,6.25
2023-04-18T16:44:00.331Z,8.05
2023-04-18T16:46:45.637Z,7.82
2023-04-18T16:49:30.749Z,7.65
2023-04-18T16:52:17.576Z,7.30
2023-04-18T16:55:03.010Z,7.03
2023-04-18T16:57:48.293Z,8.38
2023-04-18T17:00:34.269Z,8.20
2023-04-18T17:03:20.604Z,8.57
2023-04-18T17:06:09.665Z,8.38
2023-04-18T17:08:55.679Z,6.13
2023-04-18T17:11:41.266Z,4.57
2023-04-18T17:14:26.791Z,6.70
2023-04-18T17:17:11.989Z,7.22
2023-04-18T17:19:58.569Z,6.97
2023-04-18T17:22:41.061Z,9.40
2023-04-18T17:25:26.336Z,6.38
2023-04-18T17:28:11.753Z,7.15
2023-04-18T17:30:57.943Z,9.77
2023-04-18T17:33:44.198Z,7.65
2023-04-18T17:36:29.602Z,6.97
2023-04-18T17:39:16.768Z,9.55
2023-04-18T17:42:02.444Z,6.53
2023-04-18T17:44:47.585Z,8.38
2023-04-18T17:47:33.635Z,7.63
2023-04-18T17:50:19.060Z,8.15
2023-04-18T17:53:04.314Z,7.18
2023-04-18T17:55:52.085Z,12.32
2023-04-18T17:58:37.425Z,6.00
2023-04-18T18:01:24.589Z,11.02
2023-04-18T18:04:10.280Z,7.68
2023-04-18T18:06:56.816Z,8.20
2023-04-18T18:09:42.301Z,9.30
2023-04-18T18:12:32.232Z,9.43
2023-04-18T18:15:18.100Z,9.02
2023-04-18T18:18:03.265Z,7.45
2023-04-18T18:20:48.486Z,8.23
2023-04-18T18:23:33.583Z,11.25
2023-04-18T18:26:19.017Z,8.85
2023-04-18T18:29:11.032Z,11.55
2023-04-18T18:31:56.296Z,12.00
2023-04-18T18:34:46.023Z,12.05
2023-04-18T18:37:32.299Z,9.23
2023-04-18T18:40:17.365Z,9.95
2023-04-18T18:43:02.508Z,10.45
2023-04-18T18:45:47.864Z,8.43
2023-04-18T18:48:36.768Z,6.60
2023-04-18T18:51:23.636Z,8.80
2023-04-18T18:54:08.834Z,10.43
2023-04-18T18:56:54.238Z,9.15
2023-04-18T18:59:39.789Z,6.75
2023-04-18T19:02:25.751Z,9.85
2023-04-18T19:05:12.679Z,9.85
2023-04-18T19:07:57.660Z,11.82
2023-04-18T19:10:43.169Z,8.40
2023-04-18T19:13:28.240Z,7.90
2023-04-18T19:16:13.710Z,10.70
2023-04-18T19:18:58.913Z,11.13
2023-04-18T19:21:47.290Z,10.82
2023-04-18T19:24:32.800Z,9.13
2023-04-18T19:27:17.940Z,11.20
2023-04-18T19:30:03.784Z,7.53
2023-04-18T19:32:49.796Z,8.65
2023-04-18T19:35:37.220Z,9.27
2023-04-18T19:38:23.245Z,12.02
2023-04-18T19:41:08.346Z,7.10
2023-04-18T19:43:53.738Z,13.05
2023-04-18T19:46:39.307Z,10.45
2023-04-18T19:49:24.642Z,13.88
2023-04-18T19:52:09.795Z,9.93
2023-04-18T19:54:54.976Z,13.35
2023-04-18T19:57:41.353Z,8.60
2023-04-18T20:00:26.786Z,11.45
2023-04-18T20:03:12.283Z,13.10
2023-04-18T20:05:57.548Z,11.98
2023-04-18T20:08:42.781Z,13.18
2023-04-18T20:11:27.970Z,11.25
2023-04-18T20:14:13.125Z,9.73
2023-04-18T20:16:58.422Z,12.90
2023-04-18T20:19:43.739Z,13.18
2023-04-18T20:22:29.373Z,10.10
2023-04-18T20:25:14.580Z,13.55
2023-04-18T20:27:59.795Z,11.20
2023-04-18T20:30:45.622Z,10.52
2023-04-18T20:33:31.182Z,13.50
2023-04-18T20:36:18.155Z,11.15
2023-04-18T20:39:03.520Z,12.10
2023-04-18T20:41:50.561Z,11.88
2023-04-18T20:44:36.517Z,11.82
2023-04-18T20:47:21.534Z,12.82
2023-04-18T20:50:08.124Z,12.23
2023-04-18T20:52:53.879Z,12.82
2023-04-18T20:55:39.162Z,12.57
2023-04-18T20:58:24.626Z,12.55
2023-04-18T21:01:09.865Z,14.30
2023-04-18T21:03:55.459Z,12.30
2023-04-18T21:06:41.023Z,11.85
2023-04-18T21:09:26.367Z,12.77
2023-04-18T21:12:11.661Z,10.95
2023-04-18T21:14:56.964Z,12.82
2023-04-18T21:17:42.408Z,16.58
2023-04-18T21:20:28.031Z,12.60
2023-04-18T21:23:13.103Z,17.45
2023-04-18T21:25:58.596Z,14.05
2023-04-18T21:29:00.711Z,15.02
2023-04-18T21:31:47.309Z,17.13
2023-04-18T21:34:32.685Z,15.48
2023-04-18T21:37:18.534Z,12.02
2023-04-18T21:40:04.699Z,17.73
2023-04-18T21:42:51.107Z,18.30
2023-04-18T21:45:36.281Z,18.50
2023-04-18T21:48:21.781Z,15.10
2023-04-18T21:51:08.778Z,16.23
2023-04-18T21:53:54.311Z,18.20
2023-04-18T21:56:39.823Z,14.15
2023-04-18T21:59:25.249Z,14.25
2023-04-18T22:02:10.726Z,15.00
2023-04-18T22:04:56.089Z,16.08
2023-04-18T22:07:50.468Z,19.83
2023-04-18T22:10:39.977Z,18.08
2023-04-18T22:13:30.018Z,19.65
2023-04-18T22:16:16.148Z,15.80
2023-04-18T22:19:01.559Z,13.93
2023-04-18T22:21:46.641Z,18.20
2023-04-18T22:24:31.945Z,14.48
2023-04-18T22:27:17.408Z,15.38
2023-04-18T22:30:03.642Z,20.55
2023-04-18T22:32:48.781Z,14.00
2023-04-18T22:35:34.391Z,12.35
2023-04-18T22:38:19.686Z,16.05
2023-04-18T22:41:04.934Z,14.98
2023-04-18T22:43:50.388Z,15.45
2023-04-18T22:46:38.164Z,13.10
2023-04-18T22:49:23.510Z,11.77
2023-04-18T22:52:09.021Z,13.18
2023-04-18T22:54:54.426Z,9.73
2023-04-18T22:57:39.909Z,14.88
2023-04-18T23:00:25.693Z,11.23
2023-04-18T23:03:11.337Z,11.65
2023-04-18T23:05:56.917Z,13.77
2023-04-18T23:08:42.578Z,11.25
2023-04-18T23:11:28.110Z,12.95
2023-04-18T23:14:15.551Z,18.80
2023-04-18T23:17:01.210Z,9.82
2023-04-18T23:19:46.588Z,13.60
2023-04-18T23:22:32.946Z,11.00
2023-04-18T23:25:19.403Z,12.45
2023-04-18T23:28:04.919Z,10.70
2023-04-18T23:30:50.289Z,10.40
2023-04-18T23:33:35.660Z,13.02
2023-04-18T23:36:20.831Z,11.05
2023-04-18T23:39:07.034Z,13.70
2023-04-18T23:41:52.430Z,10.75
2023-04-18T23:44:37.486Z,10.73
2023-04-18T23:47:22.966Z,9.88
2023-04-18T23:50:09.061Z,8.50
2023-04-18T23:52:54.184Z,11.77
2023-04-18T23:55:40.283Z,8.48
2023-04-18T23:58:26.409Z,8.57
